Export, Pennsylvania
Current Conditions -  °F | °C
As of 5:50 PM on Thursday 27 Nov 2014 (Local Time) from KLBE Reporting Station
Light Snow Light Snow  
Wind Chill: 22°   Ceiling: 1100
Heat Index: 32°   Visibility: 2mi
Dew Point: 30°   Wind: 14mph
Humidity: 93%   Direction: 290°WNW
Pressure: 30.15"   Gusts: 25mph
Location:  40.42°N, 79.63°W
Report Text: KLBE 272250Z 29012G22KT 2SM -SN SCT002 OVC011 00/M01 A3015
Loading
Personal Weather Stations






























Interactive Weather Map New forecast layout! Learn more

10-Day Weather Forecast

Advertisements
Track Severe Weather on mobile